Time;durP1;ratioP1;P1;durP2;ratioP2;P2;SDS_P1;SDS_P2;PMS_P1;PMS_P2;Temp;Humidity;BMP_temperature;BMP_pressure;BME280_temperature;BME280_humidity;BME280_pressure;Samples;Min_cycle;Max_cycle;Signal;HPM_P1;HPM_P2
2021/05/16 00:00:29;;;;;;;8.02;6.28;;;14.90;70.30;;;;;;5001042;28;20037;-90
2021/05/16 00:02:55;;;;;;;8.27;5.60;;;14.90;70.30;;;;;;5006581;28;20026;-90
2021/05/16 00:05:24;;;;;;;6.95;5.40;;;14.90;70.20;;;;;;5005352;28;20033;-90
2021/05/16 00:07:50;;;;;;;6.82;5.03;;;14.90;70.40;;;;;;5013458;28;20070;-90
2021/05/16 00:10:18;;;;;;;8.50;4.78;;;14.90;70.40;;;;;;5006977;28;20128;-90
2021/05/16 00:12:44;;;;;;;5.43;4.00;;;14.90;70.20;;;;;;5004573;28;20088;-91
2021/05/16 00:15:13;;;;;;;7.80;4.32;;;14.80;70.10;;;;;;5002871;28;20393;-90
2021/05/16 00:17:40;;;;;;;6.10;4.22;;;14.90;70.10;;;;;;5000097;28;20030;-90
2021/05/16 00:20:09;;;;;;;6.88;4.35;;;14.90;70.10;;;;;;5017230;28;20034;-91
2021/05/16 00:22:36;;;;;;;6.60;5.15;;;14.90;70.10;;;;;;4999597;28;20026;-91
2021/05/16 00:25:07;;;;;;;5.85;4.40;;;14.80;69.90;;;;;;5016782;28;20037;-90
2021/05/16 00:27:35;;;;;;;6.78;4.43;;;14.80;70.00;;;;;;4999423;28;20454;-90
2021/05/16 00:30:01;;;;;;;8.52;4.97;;;14.80;70.10;;;;;;4999821;28;20030;-90
2021/05/16 00:32:27;;;;;;;6.35;4.40;;;14.80;70.10;;;;;;4999224;28;20034;-90
2021/05/16 00:34:52;;;;;;;6.32;4.68;;;14.80;70.20;;;;;;4999632;28;20030;-91
2021/05/16 00:37:18;;;;;;;6.05;4.57;;;14.70;70.20;;;;;;4999555;28;20500;-90
2021/05/16 00:39:44;;;;;;;7.45;4.88;;;14.70;70.40;;;;;;5000053;28;20453;-90
2021/05/16 00:42:10;;;;;;;8.35;4.75;;;14.70;70.50;;;;;;4998936;28;20530;-90
2021/05/16 00:44:35;;;;;;;7.75;4.80;;;14.60;70.60;;;;;;4999256;28;20030;-91
2021/05/16 00:47:01;;;;;;;7.63;4.95;;;14.60;70.60;;;;;;4999780;28;20022;-90
2021/05/16 00:49:27;;;;;;;6.57;4.53;;;14.50;70.90;;;;;;4999709;28;20038;-90
2021/05/16 00:51:52;;;;;;;5.90;4.30;;;14.40;70.80;;;;;;4999764;28;20057;-90
2021/05/16 00:54:18;;;;;;;5.50;4.43;;;14.40;70.90;;;;;;5000096;28;20037;-90
2021/05/16 00:56:44;;;;;;;8.57;5.40;;;14.40;71.20;;;;;;4999465;28;20523;-90
2021/05/16 00:59:09;;;;;;;7.65;5.22;;;14.40;72.00;;;;;;4999161;28;20029;-91
2021/05/16 01:01:35;;;;;;;6.60;4.38;;;14.40;71.30;;;;;;5001893;28;20532;-90
2021/05/16 01:04:01;;;;;;;6.55;4.88;;;14.40;71.40;;;;;;5005185;28;20026;-91
2021/05/16 01:06:27;;;;;;;6.35;4.18;;;14.40;71.50;;;;;;5009369;28;20432;-91
2021/05/16 01:08:58;;;;;;;6.85;4.63;;;14.40;71.40;;;;;;5010517;28;20084;-91
2021/05/16 01:11:28;;;;;;;5.75;4.10;;;14.40;71.60;;;;;;5008447;28;20049;-90
2021/05/16 01:13:54;;;;;;;6.43;4.25;;;14.40;71.60;;;;;;4998971;28;20084;-91
2021/05/16 01:16:20;;;;;;;6.47;4.20;;;14.40;71.60;;;;;;4998859;28;20058;-91
2021/05/16 01:18:46;;;;;;;6.70;4.35;;;14.40;71.60;;;;;;4998767;28;20033;-91
2021/05/16 01:21:17;;;;;;;6.97;4.82;;;14.40;71.80;;;;;;4998506;28;20363;-91
2021/05/16 01:23:48;;;;;;;6.85;4.20;;;14.30;71.80;;;;;;4998534;28;20026;-90
2021/05/16 01:26:15;;;;;;;8.02;5.15;;;14.30;71.90;;;;;;4998888;28;20504;-90
2021/05/16 01:28:44;;;;;;;6.03;3.95;;;14.30;71.90;;;;;;4998786;28;20026;-91
2021/05/16 01:31:11;;;;;;;8.57;5.70;;;14.20;72.00;;;;;;4998660;28;20030;-91
2021/05/16 01:33:37;;;;;;;8.77;6.13;;;14.20;72.10;;;;;;4998448;28;20069;-91
2021/05/16 01:36:03;;;;;;;8.23;5.20;;;14.10;72.20;;;;;;4998433;28;20030;-91
2021/05/16 01:38:29;;;;;;;7.45;5.22;;;14.10;72.30;;;;;;4998615;28;20026;-91
2021/05/16 01:40:55;;;;;;;6.38;4.45;;;14.10;72.30;;;;;;4999069;28;20037;-91
2021/05/16 01:43:21;;;;;;;6.15;4.32;;;14.10;72.50;;;;;;5004576;28;20083;-91
2021/05/16 01:45:47;;;;;;;8.88;4.88;;;14.00;72.70;;;;;;5031001;28;20017;-91
2021/05/16 01:48:13;;;;;;;8.25;4.63;;;14.00;72.90;;;;;;5008508;28;20034;-91
2021/05/16 01:50:39;;;;;;;7.22;5.47;;;14.00;73.10;;;;;;5009014;28;20030;-90
2021/05/16 01:53:08;;;;;;;5.80;4.82;;;14.00;73.00;;;;;;5016973;28;20088;-90
2021/05/16 01:55:35;;;;;;;7.63;5.30;;;14.00;73.10;;;;;;5015548;28;20030;-90
2021/05/16 01:58:01;;;;;;;6.93;5.00;;;14.00;73.20;;;;;;5002753;28;20033;-90
2021/05/16 02:00:39;;;;;;;7.97;5.35;;;14.00;73.20;;;;;;4999600;28;20116;-90
2021/05/16 02:03:06;;;;;;;7.13;4.60;;;14.00;73.20;;;;;;4997806;28;20026;-91
2021/05/16 02:05:32;;;;;;;5.65;4.55;;;14.00;73.30;;;;;;4997840;28;20026;-91
2021/05/16 02:07:58;;;;;;;6.85;5.18;;;14.00;73.90;;;;;;4997691;28;20037;-91
2021/05/16 02:10:24;;;;;;;7.30;4.85;;;14.00;73.40;;;;;;4997264;28;20061;-91
2021/05/16 02:12:50;;;;;;;7.03;4.65;;;14.00;73.60;;;;;;4997615;28;20037;-91
2021/05/16 02:15:16;;;;;;;8.63;4.63;;;14.00;73.70;;;;;;4998220;28;20029;-91
2021/05/16 02:17:44;;;;;;;6.28;4.45;;;14.00;73.70;;;;;;4997655;28;20121;-91
2021/05/16 02:20:13;;;;;;;6.05;4.10;;;14.00;73.70;;;;;;4996419;28;20036;-91
2021/05/16 02:22:39;;;;;;;5.85;4.25;;;14.00;73.70;;;;;;4997191;28;20025;-91
2021/05/16 02:25:06;;;;;;;6.53;4.22;;;14.00;73.70;;;;;;4997376;28;20030;-91
2021/05/16 02:27:33;;;;;;;7.22;4.88;;;14.00;73.80;;;;;;4993633;28;20046;-91
2021/05/16 02:29:59;;;;;;;6.55;4.68;;;14.00;73.80;;;;;;4994248;28;20173;-91
2021/05/16 02:32:26;;;;;;;7.43;4.80;;;14.00;73.80;;;;;;4994347;28;20062;-91
2021/05/16 02:34:51;;;;;;;5.30;4.78;;;14.00;73.80;;;;;;4995813;28;20046;-91
2021/05/16 02:37:17;;;;;;;5.28;4.30;;;14.00;73.90;;;;;;5001701;28;20030;-90
2021/05/16 02:39:43;;;;;;;7.63;5.13;;;14.00;73.90;;;;;;5002121;28;20026;-91
2021/05/16 02:42:09;;;;;;;8.43;4.75;;;14.00;74.00;;;;;;4996740;28;20030;-91
2021/05/16 02:44:35;;;;;;;5.53;4.90;;;14.10;74.10;;;;;;4993828;28;20110;-91
2021/05/16 02:47:02;;;;;;;8.50;5.30;;;14.10;74.10;;;;;;4994599;28;20030;-91
2021/05/16 02:49:29;;;;;;;6.30;4.60;;;14.10;74.10;;;;;;4993895;28;20053;-91
2021/05/16 02:51:55;;;;;;;5.18;4.28;;;14.20;74.10;;;;;;4994460;28;20125;-91
2021/05/16 02:54:21;;;;;;;5.60;3.83;;;14.20;74.10;;;;;;4994008;28;20026;-90
2021/05/16 02:56:47;;;;;;;6.53;4.30;;;14.20;74.10;;;;;;4993981;28;20034;-90
2021/05/16 02:59:12;;;;;;;8.25;4.80;;;14.30;74.00;;;;;;4994226;28;20030;-91
2021/05/16 03:01:38;;;;;;;8.90;4.93;;;14.40;74.00;;;;;;4995199;28;20062;-91
2021/05/16 03:04:04;;;;;;;6.80;4.75;;;14.40;73.80;;;;;;4994017;28;20037;-91
2021/05/16 03:06:30;;;;;;;8.38;4.65;;;14.50;73.90;;;;;;4994052;28;20121;-91
2021/05/16 03:08:55;;;;;;;6.78;4.75;;;14.50;73.70;;;;;;4993948;28;20124;-90
2021/05/16 03:11:21;;;;;;;8.68;5.05;;;14.60;73.70;;;;;;4993795;28;20101;-90
2021/05/16 03:13:47;;;;;;;6.68;4.75;;;14.70;73.60;;;;;;4993908;28;20092;-91
2021/05/16 03:16:12;;;;;;;7.18;5.30;;;14.80;73.60;;;;;;4994898;28;20085;-91
2021/05/16 03:18:38;;;;;;;8.88;6.07;;;14.80;73.40;;;;;;4995368;28;20026;-91
2021/05/16 03:21:04;;;;;;;7.60;5.53;;;14.90;73.30;;;;;;4993723;28;20030;-91
2021/05/16 03:23:30;;;;;;;7.43;5.45;;;15.00;73.10;;;;;;4995757;28;20061;-91
2021/05/16 03:26:01;;;;;;;7.18;5.55;;;15.10;73.00;;;;;;5012179;28;20057;-90
2021/05/16 03:28:30;;;;;;;6.75;4.38;;;15.20;72.90;;;;;;5001960;28;20064;-91
2021/05/16 03:30:56;;;;;;;10.63;5.63;;;15.30;72.80;;;;;;5002421;28;20121;-91
2021/05/16 03:33:23;;;;;;;6.78;4.97;;;15.40;72.70;;;;;;5005572;28;20030;-91
2021/05/16 03:35:49;;;;;;;7.15;5.38;;;15.50;73.20;;;;;;5020878;28;20022;-91
2021/05/16 03:38:15;;;;;;;8.60;5.43;;;15.60;72.50;;;;;;5003083;28;20034;-90
2021/05/16 03:40:41;;;;;;;7.15;4.50;;;15.70;72.30;;;;;;5003113;28;20084;-91
2021/05/16 03:43:07;;;;;;;9.55;5.05;;;15.80;72.10;;;;;;5000177;28;20437;-91
2021/05/16 03:45:33;;;;;;;6.90;4.35;;;15.90;71.90;;;;;;5000561;28;20412;-91
2021/05/16 03:47:59;;;;;;;6.18;4.03;;;16.00;71.70;;;;;;5000412;28;20033;-91
2021/05/16 03:50:25;;;;;;;5.95;4.28;;;16.10;71.40;;;;;;5000323;28;20034;-91
2021/05/16 03:52:51;;;;;;;5.40;3.75;;;16.20;71.20;;;;;;5000294;28;20477;-91
2021/05/16 03:55:19;;;;;;;7.63;4.45;;;16.40;71.00;;;;;;5000070;28;20080;-91
2021/05/16 03:57:45;;;;;;;6.25;4.55;;;16.40;70.80;;;;;;5000257;28;20030;-91
2021/05/16 04:00:12;;;;;;;5.65;4.18;;;16.50;70.50;;;;;;4999895;28;20030;-91
2021/05/16 04:02:38;;;;;;;5.03;4.53;;;16.70;70.30;;;;;;4999850;28;20057;-91
2021/05/16 04:05:04;;;;;;;5.57;4.07;;;16.70;70.00;;;;;;4999890;28;20041;-91
2021/05/16 04:07:30;;;;;;;8.40;4.53;;;16.80;69.80;;;;;;4999653;28;20026;-91
2021/05/16 04:09:56;;;;;;;8.45;5.88;;;16.90;69.70;;;;;;4999745;28;20458;-91
2021/05/16 04:12:21;;;;;;;6.85;5.38;;;17.00;69.50;;;;;;4999861;28;20058;-91
2021/05/16 04:14:49;;;;;;;5.95;4.85;;;17.00;69.30;;;;;;5017358;28;20042;-90
2021/05/16 04:17:19;;;;;;;5.07;4.18;;;17.10;69.20;;;;;;4999659;28;20025;-91
2021/05/16 04:19:45;;;;;;;6.35;4.90;;;17.20;69.00;;;;;;4999752;28;20060;-91
2021/05/16 04:22:10;;;;;;;7.05;4.70;;;17.40;68.80;;;;;;5000238;28;20029;-91
2021/05/16 04:24:36;;;;;;;6.50;4.78;;;17.50;68.50;;;;;;4999723;28;20057;-91
2021/05/16 04:27:02;;;;;;;5.95;4.18;;;17.60;68.20;;;;;;5017239;28;20457;-91
2021/05/16 04:29:28;;;;;;;3.95;3.55;;;17.60;68.00;;;;;;4999458;28;20030;-91
2021/05/16 04:31:54;;;;;;;5.28;4.22;;;17.80;67.80;;;;;;4999723;28;20033;-91
2021/05/16 04:34:19;;;;;;;8.27;4.35;;;17.90;67.60;;;;;;4999255;28;20026;-91
2021/05/16 04:36:45;;;;;;;4.90;3.25;;;17.90;67.40;;;;;;4999402;28;20022;-91
2021/05/16 04:39:11;;;;;;;4.95;3.72;;;18.00;67.30;;;;;;4999199;28;20026;-91
2021/05/16 04:41:37;;;;;;;6.72;3.72;;;18.10;67.10;;;;;;5016468;28;20029;-91
2021/05/16 04:44:03;;;;;;;4.00;3.60;;;18.30;66.90;;;;;;4998519;28;20026;-91
2021/05/16 04:46:29;;;;;;;5.90;3.50;;;18.40;66.60;;;;;;4998769;28;20061;-91
2021/05/16 04:48:55;;;;;;;5.72;3.75;;;18.50;66.30;;;;;;4999314;28;20072;-90
2021/05/16 04:51:21;;;;;;;6.93;4.18;;;18.60;66.10;;;;;;4998959;28;20030;-90
2021/05/16 04:53:46;;;;;;;4.05;3.38;;;18.70;65.90;;;;;;4998954;28;20037;-91
2021/05/16 04:56:12;;;;;;;5.15;4.03;;;18.80;65.80;;;;;;5016740;28;20417;-91
2021/05/16 04:58:38;;;;;;;5.03;4.38;;;18.90;65.60;;;;;;4999005;28;20064;-91
2021/05/16 05:01:05;;;;;;;4.97;4.47;;;19.10;65.80;;;;;;4998833;28;20038;-91
2021/05/16 05:03:31;;;;;;;4.88;4.38;;;19.10;65.90;;;;;;5000704;28;20543;-91
2021/05/16 05:05:57;;;;;;;4.63;3.67;;;19.20;65.90;;;;;;5022178;28;20072;-91
2021/05/16 05:08:25;;;;;;;5.30;4.22;;;19.30;66.10;;;;;;5005607;28;20026;-91
2021/05/16 05:10:51;;;;;;;4.65;3.97;;;19.40;66.50;;;;;;5004277;28;20033;-91
2021/05/16 05:13:17;;;;;;;4.28;3.72;;;19.40;66.60;;;;;;5006993;28;20034;-91
2021/05/16 05:15:42;;;;;;;4.22;3.63;;;19.40;67.00;;;;;;5001951;28;20033;-91
2021/05/16 05:18:08;;;;;;;3.65;3.28;;;19.40;67.20;;;;;;5018870;28;20450;-91
2021/05/16 05:20:34;;;;;;;3.03;2.83;;;19.40;67.20;;;;;;5001233;28;20029;-91
2021/05/16 05:23:00;;;;;;;4.85;3.33;;;19.50;67.10;;;;;;4998898;28;20036;-91
2021/05/16 05:25:29;;;;;;;3.53;3.22;;;19.50;67.10;;;;;;4998526;28;20030;-91
2021/05/16 05:27:56;;;;;;;5.78;4.00;;;19.60;66.90;;;;;;4998651;28;20085;-91
2021/05/16 05:30:23;;;;;;;4.90;3.83;;;19.60;66.80;;;;;;4998434;28;20038;-91
2021/05/16 05:32:49;;;;;;;4.72;3.75;;;19.60;66.80;;;;;;4998576;28;20029;-91
2021/05/16 05:35:14;;;;;;;4.63;4.15;;;19.60;66.90;;;;;;4998188;28;20084;-91
2021/05/16 05:37:40;;;;;;;5.22;4.50;;;19.60;66.80;;;;;;4998033;28;20049;-91
2021/05/16 05:40:07;;;;;;;5.22;4.53;;;19.60;66.70;;;;;;4997972;28;20034;-91
2021/05/16 05:42:33;;;;;;;4.18;3.50;;;19.60;66.50;;;;;;4998843;28;20057;-91
2021/05/16 05:44:58;;;;;;;5.22;3.70;;;19.70;66.30;;;;;;4997926;28;20033;-91
2021/05/16 05:47:24;;;;;;;4.45;3.75;;;19.80;66.30;;;;;;4997924;28;20029;-91
2021/05/16 05:49:52;;;;;;;3.63;3.30;;;19.90;66.10;;;;;;4998721;28;20034;-91
2021/05/16 05:52:18;;;;;;;5.75;3.28;;;20.00;65.80;;;;;;4997854;28;20064;-92
2021/05/16 05:54:44;;;;;;;3.80;3.40;;;20.20;65.50;;;;;;4996924;28;20029;-91
2021/05/16 05:57:09;;;;;;;3.75;3.45;;;20.30;65.10;;;;;;4998040;28;20384;-92
2021/05/16 05:59:35;;;;;;;3.30;3.00;;;20.50;64.70;;;;;;4998412;28;20030;-90
2021/05/16 06:02:02;;;;;;;4.25;3.58;;;20.60;64.30;;;;;;4998737;28;20026;-91
2021/05/16 06:04:29;;;;;;;3.95;3.30;;;20.70;63.80;;;;;;4999291;28;20037;-91
2021/05/16 06:06:54;;;;;;;4.10;3.28;;;20.80;63.70;;;;;;4998557;28;20481;-91
2021/05/16 06:09:20;;;;;;;3.83;3.42;;;20.90;63.50;;;;;;4998378;28;20041;-91
2021/05/16 06:11:46;;;;;;;3.53;3.22;;;21.00;63.00;;;;;;4998753;28;20438;-91
2021/05/16 06:14:12;;;;;;;2.80;2.60;;;21.10;62.30;;;;;;4998925;28;20487;-91
2021/05/16 06:16:37;;;;;;;2.70;2.50;;;21.30;61.60;;;;;;5010491;28;20029;-91
2021/05/16 06:19:03;;;;;;;3.05;2.55;;;21.40;60.80;;;;;;5014164;28;20095;-91
2021/05/16 06:21:29;;;;;;;2.33;2.13;;;21.50;60.30;;;;;;5003259;28;20061;-91
2021/05/16 06:26:38;;;;;;;2.00;1.80;;;21.70;59.50;;;;;;5014697;28;20061;-91
2021/05/16 06:29:04;;;;;;;2.33;1.52;;;21.80;58.90;;;;;;4998484;28;20030;-91
2021/05/16 06:31:30;;;;;;;1.73;1.63;;;21.90;58.50;;;;;;4997542;28;20465;-91
2021/05/16 06:33:56;;;;;;;2.67;1.65;;;22.00;58.00;;;;;;4997415;28;20040;-91
2021/05/16 06:36:22;;;;;;;1.92;1.58;;;22.00;57.80;;;;;;4998234;28;20022;-91
2021/05/16 06:38:48;;;;;;;1.90;1.70;;;22.10;57.40;;;;;;4997530;28;20101;-91
2021/05/16 06:41:14;;;;;;;1.80;1.70;;;22.20;56.60;;;;;;4997550;28;20116;-91
2021/05/16 06:43:40;;;;;;;2.38;2.17;;;22.30;56.40;;;;;;4998075;28;20026;-92
2021/05/16 06:46:05;;;;;;;1.88;1.75;;;22.30;55.80;;;;;;5001246;28;20033;-92
2021/05/16 06:48:31;;;;;;;2.15;1.98;;;22.30;55.30;;;;;;4997415;28;20022;-92
2021/05/16 06:50:57;;;;;;;1.98;1.88;;;22.30;54.90;;;;;;5001035;28;20060;-90
2021/05/16 06:53:23;;;;;;;1.90;1.70;;;22.20;54.90;;;;;;5009746;28;20034;-90
2021/05/16 06:55:48;;;;;;;1.80;1.70;;;22.10;54.20;;;;;;5009449;28;20030;-91
2021/05/16 06:58:15;;;;;;;1.55;1.45;;;22.10;54.50;;;;;;5003346;28;20022;-91
2021/05/16 07:00:40;;;;;;;2.72;1.70;;;22.20;54.40;;;;;;5014692;28;20075;-90
2021/05/16 07:03:06;;;;;;;2.17;1.63;;;22.30;54.10;;;;;;5000491;28;20030;-90
2021/05/16 07:05:33;;;;;;;1.42;1.33;;;22.30;53.70;;;;;;5004894;28;20033;-90
2021/05/16 07:07:59;;;;;;;1.50;1.40;;;22.30;53.30;;;;;;5009576;28;20112;-90
2021/05/16 07:10:24;;;;;;;1.48;1.35;;;22.30;53.30;;;;;;5010538;28;20053;-90
2021/05/16 07:12:50;;;;;;;3.13;1.40;;;22.40;53.20;;;;;;5011329;28;20532;-90
2021/05/16 07:15:17;;;;;;;1.63;1.52;;;22.40;53.00;;;;;;5007800;28;20026;-90
2021/05/16 07:17:44;;;;;;;1.30;1.20;;;22.60;52.70;;;;;;5004458;28;20056;-92
2021/05/16 07:20:11;;;;;;;1.52;1.42;;;22.70;52.60;;;;;;5003722;28;20038;-91
2021/05/16 07:22:37;;;;;;;2.70;1.17;;;22.80;52.20;;;;;;5004361;28;20034;-91
2021/05/16 07:25:04;;;;;;;1.30;1.23;;;22.90;51.80;;;;;;5003641;28;20096;-91
2021/05/16 07:27:30;;;;;;;1.40;1.30;;;23.00;51.80;;;;;;5018310;28;20050;-92
2021/05/16 07:29:56;;;;;;;1.33;1.23;;;23.10;51.50;;;;;;5001162;28;20052;-92
2021/05/16 07:32:21;;;;;;;1.48;1.40;;;23.20;51.10;;;;;;5000263;28;20034;-93
2021/05/16 07:34:48;;;;;;;1.75;1.50;;;23.20;51.20;;;;;;5001453;28;20040;-92
2021/05/16 07:37:13;;;;;;;1.52;1.42;;;23.20;51.20;;;;;;5001756;28;20026;-92
2021/05/16 07:39:39;;;;;;;1.52;1.42;;;23.20;51.00;;;;;;5001898;28;20473;-92
2021/05/16 07:42:05;;;;;;;1.50;1.40;;;23.10;51.20;;;;;;5001709;28;20026;-92
2021/05/16 07:44:31;;;;;;;1.98;1.38;;;23.10;51.50;;;;;;4984930;28;20025;-91
2021/05/16 07:46:57;;;;;;;2.30;1.35;;;23.20;51.60;;;;;;5018636;28;20251;-92
2021/05/16 07:49:24;;;;;;;1.65;1.50;;;23.30;51.10;;;;;;5018887;28;20049;-91
2021/05/16 07:51:50;;;;;;;1.50;1.40;;;23.40;51.20;;;;;;5000948;28;20389;-92
2021/05/16 07:54:16;;;;;;;1.23;1.15;;;23.50;50.70;;;;;;4984522;28;20184;-92
2021/05/16 07:56:42;;;;;;;1.20;1.10;;;23.60;50.70;;;;;;5001826;28;20030;-92
2021/05/16 07:59:08;;;;;;;1.23;1.10;;;23.70;50.50;;;;;;5001688;28;20034;-92
2021/05/16 08:01:34;;;;;;;1.23;1.10;;;23.80;50.20;;;;;;5001265;28;20492;-92
2021/05/16 08:03:59;;;;;;;1.00;0.90;;;23.90;49.80;;;;;;5001569;28;20022;-92
2021/05/16 08:06:25;;;;;;;1.00;1.00;;;23.90;49.40;;;;;;5017330;28;20034;-92
2021/05/16 08:08:51;;;;;;;1.20;1.10;;;23.90;48.80;;;;;;4999827;28;20022;-91
2021/05/16 08:11:17;;;;;;;1.10;1.00;;;23.90;48.50;;;;;;4999725;28;20040;-92
2021/05/16 08:13:42;;;;;;;0.63;0.63;;;23.90;48.40;;;;;;4999618;28;20034;-92
2021/05/16 08:16:08;;;;;;;0.93;0.93;;;23.90;48.20;;;;;;4998950;28;20026;-92
2021/05/16 08:18:34;;;;;;;1.80;1.42;;;23.80;48.00;;;;;;4999324;28;20033;-92
2021/05/16 08:20:59;;;;;;;1.08;1.05;;;23.80;48.10;;;;;;5016626;28;20033;-92
2021/05/16 08:23:25;;;;;;;1.30;0.85;;;23.80;47.80;;;;;;4999213;28;20080;-92
2021/05/16 08:25:51;;;;;;;1.02;1.00;;;23.70;47.60;;;;;;5000793;28;20030;-92
2021/05/16 08:28:17;;;;;;;1.38;0.85;;;23.70;47.80;;;;;;5000591;28;20117;-92
2021/05/16 08:30:43;;;;;;;4.28;1.08;;;23.70;47.80;;;;;;5002354;28;20034;-92
2021/05/16 08:33:09;;;;;;;1.40;1.30;;;23.80;47.50;;;;;;5002219;28;20034;-92
2021/05/16 08:35:35;;;;;;;0.90;0.90;;;23.80;47.20;;;;;;5000526;28;20462;-92
2021/05/16 08:38:01;;;;;;;1.20;1.10;;;23.80;47.20;;;;;;5017535;28;20030;-92
2021/05/16 08:40:26;;;;;;;1.08;1.08;;;23.90;47.40;;;;;;5000666;28;20548;-92
2021/05/16 08:42:52;;;;;;;1.05;1.00;;;24.00;47.40;;;;;;5000635;28;20029;-92
2021/05/16 08:45:18;;;;;;;1.13;0.60;;;24.10;47.20;;;;;;5000122;28;20026;-91
2021/05/16 08:47:46;;;;;;;0.45;0.45;;;24.20;46.70;;;;;;4999992;28;20026;-92
2021/05/16 08:50:14;;;;;;;0.75;0.75;;;24.40;46.70;;;;;;4999319;28;20026;-92
2021/05/16 08:52:40;;;;;;;0.80;0.80;;;24.60;46.30;;;;;;5000029;28;20128;-92
2021/05/16 08:55:08;;;;;;;0.73;0.63;;;24.70;46.00;;;;;;4999742;28;20057;-93
2021/05/16 08:57:34;;;;;;;0.60;0.60;;;24.70;45.60;;;;;;4998805;28;20026;-92
2021/05/16 09:00:23;;;;;;;1.00;0.90;;;24.90;45.60;;;;;;4998707;28;20125;-92
2021/05/16 09:03:06;;;;;;;0.75;0.75;;;25.00;45.40;;;;;;4999612;28;20057;-92
2021/05/16 09:05:36;;;;;;;1.05;0.80;;;25.00;44.60;;;;;;4999773;28;20029;-92
2021/05/16 09:08:04;;;;;;;1.02;0.90;;;25.10;44.70;;;;;;4999543;28;20417;-92
2021/05/16 09:10:30;;;;;;;0.80;0.80;;;25.00;44.80;;;;;;4999366;28;20461;-91
2021/05/16 09:13:18;;;;;;;0.88;0.88;;;25.00;44.60;;;;;;5003730;28;20030;-92
2021/05/16 09:16:09;;;;;;;1.25;1.05;;;25.00;44.10;;;;;;5008410;28;20021;-92
2021/05/16 09:18:55;;;;;;;0.73;0.73;;;25.10;44.20;;;;;;5007297;28;20030;-92
2021/05/16 09:21:25;;;;;;;0.90;0.90;;;25.10;43.60;;;;;;5008382;28;20117;-92
2021/05/16 09:24:06;;;;;;;1.67;1.20;;;25.10;44.20;;;;;;5006311;28;20030;-92
2021/05/16 09:26:38;;;;;;;1.15;1.13;;;25.00;43.90;;;;;;4999645;28;20100;-92
2021/05/16 09:29:26;;;;;;;1.00;1.00;;;25.00;43.80;;;;;;5002471;28;20057;-92
2021/05/16 09:31:53;;;;;;;1.30;1.20;;;25.10;44.10;;;;;;5001471;28;20030;-92
2021/05/16 09:34:19;;;;;;;1.08;1.08;;;25.10;44.30;;;;;;5002722;28;20030;-92
2021/05/16 09:36:48;;;;;;;1.63;1.50;;;25.30;44.20;;;;;;5001617;28;20084;-92
2021/05/16 09:39:31;;;;;;;1.40;1.30;;;25.40;44.30;;;;;;5000300;28;20030;-91
2021/05/16 09:42:05;;;;;;;0.77;0.77;;;25.60;43.70;;;;;;4998568;28;20088;-91
2021/05/16 09:44:32;;;;;;;1.15;1.10;;;25.70;43.90;;;;;;4998569;28;20041;-91
2021/05/16 09:47:26;;;;;;;1.00;0.90;;;25.80;43.80;;;;;;5015597;28;20036;-92
2021/05/16 09:49:57;;;;;;;2.15;0.90;;;25.90;42.40;;;;;;4998113;28;20053;-92
2021/05/16 09:52:34;;;;;;;1.30;0.82;;;25.90;43.20;;;;;;4998431;28;20042;-92
2021/05/16 09:55:13;;;;;;;0.80;0.80;;;26.00;43.20;;;;;;4998312;28;20084;-92
2021/05/16 09:57:46;;;;;;;0.90;0.90;;;26.10;43.20;;;;;;5015217;28;20022;-91
2021/05/16 10:00:13;;;;;;;;;;;26.20;42.40;;;;;;4998091;28;20036;-92
2021/05/16 10:02:39;;;;;;;0.75;0.75;;;26.30;41.90;;;;;;4997426;28;19910;-92
2021/05/16 10:05:08;;;;;;;0.65;0.60;;;26.40;42.10;;;;;;4998324;28;20117;-92
2021/05/16 10:07:34;;;;;;;0.70;0.70;;;26.40;42.20;;;;;;4998143;28;20053;-90
2021/05/16 10:10:00;;;;;;;0.70;0.70;;;26.50;42.00;;;;;;4997761;28;20489;-89
2021/05/16 10:12:27;;;;;;;0.70;0.70;;;26.60;41.50;;;;;;4998916;28;20044;-91
2021/05/16 10:15:00;;;;;;;0.68;0.68;;;26.60;41.40;;;;;;4997618;28;20033;-91
2021/05/16 10:17:27;;;;;;;0.63;0.60;;;26.80;40.60;;;;;;4997643;28;20029;-91
2021/05/16 10:19:54;;;;;;;0.88;0.88;;;26.80;41.10;;;;;;4997461;28;20036;-92
2021/05/16 10:22:26;;;;;;;0.63;0.63;;;26.90;41.00;;;;;;4997537;28;20083;-91
2021/05/16 10:24:53;;;;;;;0.85;0.85;;;26.90;40.90;;;;;;4998167;28;20029;-91
2021/05/16 10:27:27;;;;;;;0.60;0.60;;;27.00;40.50;;;;;;4997679;28;20054;-92
2021/05/16 10:30:12;;;;;;;0.63;0.63;;;27.00;39.70;;;;;;4997632;28;20037;-91
2021/05/16 10:32:49;;;;;;;1.00;0.93;;;26.90;39.40;;;;;;5015128;28;20113;-91
2021/05/16 10:35:15;;;;;;;0.80;0.80;;;26.80;40.10;;;;;;4997874;28;20172;-91
2021/05/16 10:37:54;;;;;;;0.73;0.73;;;26.90;40.00;;;;;;5001871;28;20033;-91
2021/05/16 10:40:28;;;;;;;0.85;0.85;;;27.00;40.00;;;;;;5000554;28;20522;-91
2021/05/16 10:43:01;;;;;;;0.80;0.80;;;27.10;40.00;;;;;;5008955;28;20045;-91
2021/05/16 10:45:39;;;;;;;0.60;0.60;;;27.20;38.70;;;;;;5016635;28;20022;-91
2021/05/16 10:48:06;;;;;;;0.50;0.50;;;27.30;39.60;;;;;;5001794;28;20116;-91
2021/05/16 10:50:41;;;;;;;0.73;0.73;;;27.50;39.80;;;;;;5001605;28;20030;-91
2021/05/16 10:53:23;;;;;;;1.63;1.52;;;27.80;39.40;;;;;;5001677;28;20104;-92
2021/05/16 10:56:09;;;;;;;0.75;0.75;;;27.90;38.60;;;;;;5001593;28;20030;-92
2021/05/16 10:58:54;;;;;;;0.90;0.90;;;28.00;37.80;;;;;;5001259;28;20026;-91
2021/05/16 11:01:35;;;;;;;1.10;1.05;;;28.00;37.50;;;;;;5018952;28;20026;-91
2021/05/16 11:04:02;;;;;;;0.60;0.60;;;28.10;38.00;;;;;;5001655;28;20030;-91
2021/05/16 11:06:31;;;;;;;0.90;0.90;;;28.30;38.10;;;;;;5001240;28;20060;-91
2021/05/16 11:08:56;;;;;;;1.13;0.90;;;28.40;37.90;;;;;;5000851;28;20026;-92
2021/05/16 11:11:28;;;;;;;0.82;0.73;;;28.50;37.50;;;;;;5001533;28;20037;-91
2021/05/16 11:13:54;;;;;;;0.60;0.60;;;28.60;37.10;;;;;;5004235;28;20034;-92
2021/05/16 11:16:19;;;;;;;1.10;1.00;;;28.50;36.90;;;;;;5014430;28;20449;-91
2021/05/16 11:18:45;;;;;;;0.73;0.73;;;28.50;36.90;;;;;;5018500;28;20037;-91
2021/05/16 11:21:11;;;;;;;0.85;0.85;;;28.40;36.90;;;;;;5020631;28;20034;-92
2021/05/16 11:23:39;;;;;;;0.55;0.55;;;28.40;36.40;;;;;;5004019;28;20548;-92
2021/05/16 11:26:10;;;;;;;0.82;0.80;;;28.30;36.70;;;;;;5002018;28;20061;-91
2021/05/16 11:28:39;;;;;;;1.00;0.90;;;28.40;36.70;;;;;;5001671;28;20116;-91
2021/05/16 11:31:13;;;;;;;2.35;1.02;;;28.40;36.50;;;;;;5001050;28;20038;-91
2021/05/16 11:33:40;;;;;;;0.77;0.77;;;28.40;36.00;;;;;;5001081;28;20030;-91
2021/05/16 11:36:14;;;;;;;1.10;0.95;;;28.30;36.20;;;;;;5000682;28;20080;-91
2021/05/16 11:38:46;;;;;;;0.93;0.80;;;28.30;35.70;;;;;;5002641;28;20030;-91
2021/05/16 11:41:30;;;;;;;0.80;0.80;;;28.20;35.90;;;;;;5002124;28;20113;-91
2021/05/16 11:43:56;;;;;;;1.00;1.00;;;28.20;35.70;;;;;;5001762;28;20056;-92
2021/05/16 11:46:49;;;;;;;1.02;0.90;;;28.10;35.70;;;;;;5002236;28;20029;-91
2021/05/16 11:49:26;;;;;;;0.70;0.70;;;27.90;35.10;;;;;;5014298;28;20141;-91
2021/05/16 11:51:56;;;;;;;0.73;0.73;;;28.00;35.80;;;;;;5001123;28;20037;-90
2021/05/16 11:54:25;;;;;;;3.50;2.47;;;28.00;35.90;;;;;;5001135;28;20025;-91
2021/05/16 11:56:51;;;;;;;1.50;1.40;;;28.10;35.60;;;;;;5000408;28;20458;-90
2021/05/16 11:59:17;;;;;;;1.50;1.40;;;28.10;35.60;;;;;;4999889;28;20117;-90
2021/05/16 12:01:46;;;;;;;1.90;1.80;;;28.10;35.60;;;;;;5000468;28;20103;-90
2021/05/16 12:04:15;;;;;;;2.65;1.70;;;28.10;35.60;;;;;;5017346;28;20472;-89
2021/05/16 12:06:46;;;;;;;1.50;1.40;;;28.00;35.50;;;;;;5001624;28;20465;-89
2021/05/16 12:09:19;;;;;;;2.08;1.60;;;28.00;35.50;;;;;;5011303;28;20022;-88
2021/05/16 12:11:47;;;;;;;1.07;1.00;;;28.00;35.50;;;;;;5006847;28;20033;-88
2021/05/16 12:14:24;;;;;;;1.60;1.50;;;28.00;35.80;;;;;;5003571;28;20256;-87
2021/05/16 12:16:54;;;;;;;1.40;1.23;;;28.10;35.70;;;;;;5020645;28;20022;-91
2021/05/16 12:19:21;;;;;;;1.13;1.05;;;28.30;35.80;;;;;;5003294;28;20133;-91
2021/05/16 12:21:55;;;;;;;1.08;1.08;;;28.50;35.80;;;;;;5005173;28;20057;-91
2021/05/16 12:24:22;;;;;;;0.90;0.90;;;28.70;35.60;;;;;;5007100;28;20022;-90
2021/05/16 12:26:48;;;;;;;0.80;0.80;;;28.90;35.40;;;;;;5003515;28;20058;-91
2021/05/16 12:29:17;;;;;;;1.00;0.90;;;29.00;35.10;;;;;;5001046;28;20120;-91
2021/05/16 12:31:44;;;;;;;0.75;0.75;;;29.00;34.70;;;;;;5000646;28;20038;-92
2021/05/16 12:34:11;;;;;;;1.00;1.00;;;28.90;34.50;;;;;;5000704;28;20041;-91
2021/05/16 12:37:13;;;;;;;0.88;0.80;;;28.80;34.30;;;;;;5000112;28;20058;-92
2021/05/16 12:39:44;;;;;;;0.98;0.98;;;28.70;33.70;;;;;;4967260;28;20045;-91
2021/05/16 12:42:37;;;;;;;1.23;1.13;;;28.70;34.60;;;;;;5009816;28;20076;-94
2021/05/16 12:45:19;;;;;;;1.23;1.13;;;28.70;34.10;;;;;;5021248;28;20055;-96
2021/05/16 12:47:58;;;;;;;0.90;0.90;;;28.70;34.30;;;;;;5008991;28;20028;-94
2021/05/16 12:50:41;;;;;;;0.70;0.70;;;28.60;34.50;;;;;;5009845;28;20037;-94
2021/05/16 12:53:34;;;;;;;0.80;0.80;;;28.60;34.30;;;;;;5017343;28;20223;-94
2021/05/16 12:56:16;;;;;;;0.75;0.73;;;28.60;33.80;;;;;;5014127;28;20068;-94